Time;durP1;ratioP1;P1;durP2;ratioP2;P2;SDS_P1;SDS_P2;PMS_P1;PMS_P2;Temp;Humidity;BMP_temperature;BMP_pressure;BME280_temperature;BME280_humidity;BME280_pressure;Samples;Min_cycle;Max_cycle;Signal;HPM_P1;HPM_P2
2023/12/08 00:01:52;;;;;;;14.25;8.48;;;;;;;;;;6216908;23;19903;-84
2023/12/08 00:04:37;;;;;;;14.38;7.70;;;;;;;;;;6216150;23;20004;-82
2023/12/08 00:07:22;;;;;;;16.30;8.45;;;;;;;;;;6216275;23;20046;-83
2023/12/08 00:10:09;;;;;;;14.00;7.78;;;;;;;;;;6199405;23;20016;-84
2023/12/08 00:12:56;;;;;;;14.23;8.57;;;;;;;;;;6186322;23;20008;-84
2023/12/08 00:15:41;;;;;;;12.18;7.18;;;;;;;;;;6186629;23;20062;-84
2023/12/08 00:18:26;;;;;;;16.67;8.80;;;;;;;;;;6186401;23;20019;-86
2023/12/08 00:21:12;;;;;;;13.55;7.15;;;;;;;;;;6186688;23;20160;-85
2023/12/08 00:23:57;;;;;;;12.63;7.18;;;;;;;;;;6186624;23;19992;-85
2023/12/08 00:26:42;;;;;;;15.20;7.50;;;;;;;;;;6186472;23;20456;-84
2023/12/08 00:29:28;;;;;;;15.68;7.97;;;;;;;;;;6185960;23;20055;-85
2023/12/08 00:32:13;;;;;;;13.25;7.82;;;;;;;;;;6186031;23;20004;-85
2023/12/08 00:34:58;;;;;;;17.20;8.57;;;;;;;;;;6166893;23;20448;-85
2023/12/08 00:37:44;;;;;;;16.23;8.65;;;;;;;;;;6186003;23;20020;-83
2023/12/08 00:40:29;;;;;;;13.88;7.90;;;;;;;;;;6186699;23;20007;-84
2023/12/08 00:43:14;;;;;;;14.77;8.55;;;;;;;;;;6185893;23;20084;-83
2023/12/08 00:45:59;;;;;;;15.02;7.80;;;;;;;;;;6185668;23;20001;-83
2023/12/08 00:48:45;;;;;;;12.73;7.90;;;;;;;;;;6186263;23;20003;-84
2023/12/08 00:51:30;;;;;;;13.70;8.27;;;;;;;;;;6186254;23;20368;-83
2023/12/08 00:54:15;;;;;;;15.45;7.90;;;;;;;;;;6185713;23;20071;-84
2023/12/08 00:57:01;;;;;;;13.20;8.52;;;;;;;;;;6185807;23;19997;-83
2023/12/08 00:59:46;;;;;;;14.65;8.80;;;;;;;;;;6185699;23;20437;-84
2023/12/08 01:02:31;;;;;;;16.58;9.38;;;;;;;;;;6186351;23;20079;-83
2023/12/08 01:05:18;;;;;;;15.30;7.70;;;;;;;;;;6183700;23;20000;-83
2023/12/08 01:08:04;;;;;;;17.40;7.88;;;;;;;;;;6186045;23;20007;-83
2023/12/08 01:10:49;;;;;;;14.68;8.50;;;;;;;;;;6208628;23;20016;-83
2023/12/08 01:13:34;;;;;;;16.48;8.00;;;;;;;;;;6215199;23;19996;-82
2023/12/08 01:16:19;;;;;;;13.23;7.50;;;;;;;;;;6215512;23;20320;-82
2023/12/08 01:19:04;;;;;;;14.48;8.18;;;;;;;;;;6215696;23;20079;-82
2023/12/08 01:21:50;;;;;;;13.63;8.10;;;;;;;;;;6215488;23;20000;-82
2023/12/08 01:24:35;;;;;;;14.15;8.82;;;;;;;;;;6215102;23;20055;-82
2023/12/08 01:27:21;;;;;;;14.80;8.57;;;;;;;;;;6215937;23;20004;-84
2023/12/08 01:30:06;;;;;;;15.18;7.82;;;;;;;;;;6215572;23;19996;-84
2023/12/08 01:32:52;;;;;;;13.25;7.90;;;;;;;;;;6215824;23;20043;-85
2023/12/08 01:35:37;;;;;;;13.45;7.93;;;;;;;;;;6215997;23;20000;-85
2023/12/08 01:38:22;;;;;;;15.07;8.30;;;;;;;;;;6215632;23;20000;-86
2023/12/08 01:41:07;;;;;;;13.30;7.35;;;;;;;;;;6215402;23;20081;-84
2023/12/08 01:43:52;;;;;;;13.23;7.55;;;;;;;;;;6215037;23;19992;-85
2023/12/08 01:46:38;;;;;;;13.27;8.25;;;;;;;;;;6215204;23;20083;-84
2023/12/08 01:49:23;;;;;;;15.50;8.48;;;;;;;;;;6215461;23;19999;-83
2023/12/08 01:52:09;;;;;;;11.30;7.55;;;;;;;;;;6215733;23;20007;-83
2023/12/08 01:54:56;;;;;;;10.13;7.00;;;;;;;;;;6215442;23;20004;-84
2023/12/08 01:57:41;;;;;;;11.60;7.20;;;;;;;;;;6215290;23;19996;-83
2023/12/08 02:00:27;;;;;;;13.57;6.95;;;;;;;;;;6215680;23;19997;-84
2023/12/08 02:03:13;;;;;;;13.48;8.15;;;;;;;;;;6215388;23;19996;-84
2023/12/08 02:05:59;;;;;;;12.02;6.70;;;;;;;;;;6216712;23;19996;-83
2023/12/08 02:08:45;;;;;;;12.45;6.68;;;;;;;;;;6215835;23;20000;-85
2023/12/08 02:11:31;;;;;;;13.25;6.97;;;;;;;;;;6214716;23;20386;-85
2023/12/08 02:14:16;;;;;;;16.20;7.85;;;;;;;;;;6215235;23;20005;-84
2023/12/08 02:17:04;;;;;;;9.85;5.60;;;;;;;;;;6216014;23;20058;-83
2023/12/08 02:19:49;;;;;;;12.45;6.72;;;;;;;;;;6217776;23;20083;-84
2023/12/08 02:22:34;;;;;;;12.40;6.57;;;;;;;;;;6217171;23;20096;-83
2023/12/08 02:25:19;;;;;;;12.75;5.93;;;;;;;;;;6217946;23;20004;-84
2023/12/08 02:28:05;;;;;;;9.90;5.90;;;;;;;;;;6217007;23;20173;-83
2023/12/08 02:30:53;;;;;;;10.55;5.90;;;;;;;;;;6214603;23;20008;-83
2023/12/08 02:33:39;;;;;;;10.65;5.60;;;;;;;;;;6215831;23;20011;-84
2023/12/08 02:36:25;;;;;;;11.50;5.70;;;;;;;;;;6217241;23;19996;-83
2023/12/08 02:39:11;;;;;;;9.15;5.35;;;;;;;;;;6216791;23;19996;-83
2023/12/08 02:41:57;;;;;;;9.02;5.55;;;;;;;;;;6217296;23;20004;-84
2023/12/08 02:44:42;;;;;;;9.60;5.10;;;;;;;;;;6217245;23;20000;-85
2023/12/08 02:47:27;;;;;;;11.23;5.90;;;;;;;;;;6215252;23;19996;-85
2023/12/08 02:50:12;;;;;;;9.05;4.57;;;;;;;;;;6217102;23;20378;-84
2023/12/08 02:52:58;;;;;;;8.48;5.22;;;;;;;;;;6217424;23;20008;-85
2023/12/08 02:55:43;;;;;;;8.75;4.90;;;;;;;;;;6218122;23;20023;-85
2023/12/08 02:58:28;;;;;;;9.88;4.53;;;;;;;;;;6216188;23;20086;-85
2023/12/08 03:01:14;;;;;;;9.93;4.70;;;;;;;;;;6218604;23;19996;-85
2023/12/08 03:03:59;;;;;;;7.85;4.40;;;;;;;;;;6196906;23;20000;-84
2023/12/08 03:06:45;;;;;;;8.23;5.05;;;;;;;;;;6220741;23;20050;-86
2023/12/08 03:09:30;;;;;;;9.15;4.65;;;;;;;;;;6219527;22;19996;-84
2023/12/08 03:12:15;;;;;;;8.82;4.25;;;;;;;;;;6220598;23;20011;-85
2023/12/08 03:15:00;;;;;;;8.05;4.50;;;;;;;;;;6219851;23;20007;-84
2023/12/08 03:17:46;;;;;;;9.25;4.95;;;;;;;;;;6220328;23;20028;-84
2023/12/08 03:20:31;;;;;;;8.85;4.60;;;;;;;;;;6220608;23;19992;-84
2023/12/08 03:23:17;;;;;;;6.78;4.07;;;;;;;;;;6220657;23;20151;-83
2023/12/08 03:26:02;;;;;;;8.25;4.80;;;;;;;;;;6219017;23;19992;-83
2023/12/08 03:28:47;;;;;;;9.52;4.55;;;;;;;;;;6219273;23;20423;-83
2023/12/08 03:31:32;;;;;;;7.47;4.13;;;;;;;;;;6219679;23;20007;-83
2023/12/08 03:34:18;;;;;;;10.75;4.00;;;;;;;;;;6219970;23;19997;-84
2023/12/08 03:37:03;;;;;;;7.45;4.75;;;;;;;;;;6219598;23;20047;-83
2023/12/08 03:39:48;;;;;;;11.20;4.85;;;;;;;;;;6219592;23;19993;-84
2023/12/08 03:42:36;;;;;;;7.70;4.70;;;;;;;;;;6219737;23;20022;-83
2023/12/08 03:45:21;;;;;;;7.72;4.35;;;;;;;;;;6219838;23;20031;-83
2023/12/08 03:48:07;;;;;;;7.25;4.22;;;;;;;;;;6198485;23;20015;-84
2023/12/08 03:50:52;;;;;;;12.27;5.22;;;;;;;;;;6220084;23;20000;-83
2023/12/08 03:53:37;;;;;;;10.50;5.18;;;;;;;;;;6219603;23;20082;-83
2023/12/08 03:56:22;;;;;;;7.35;4.10;;;;;;;;;;6219233;23;20329;-84
2023/12/08 03:59:08;;;;;;;11.10;5.90;;;;;;;;;;6220164;23;20078;-84
2023/12/08 04:01:53;;;;;;;10.00;4.72;;;;;;;;;;6219429;23;20012;-86
2023/12/08 04:04:40;;;;;;;7.80;4.57;;;;;;;;;;6218211;23;20003;-85
2023/12/08 04:07:26;;;;;;;7.85;4.60;;;;;;;;;;6215905;23;20047;-86
2023/12/08 04:10:11;;;;;;;8.95;4.95;;;;;;;;;;6216674;23;20398;-85
2023/12/08 04:12:56;;;;;;;7.28;4.10;;;;;;;;;;6216431;23;20008;-84
2023/12/08 04:15:41;;;;;;;7.80;4.18;;;;;;;;;;6216352;23;20023;-85
2023/12/08 04:18:27;;;;;;;7.78;3.85;;;;;;;;;;6216732;23;20000;-85
2023/12/08 04:21:16;;;;;;;8.02;4.28;;;;;;;;;;6215941;23;20003;-85
2023/12/08 04:24:01;;;;;;;8.77;4.90;;;;;;;;;;6216936;23;20051;-83
2023/12/08 04:26:50;;;;;;;8.65;4.45;;;;;;;;;;6216417;23;19996;-84
2023/12/08 04:32:41;;;;;;;13.80;6.22;;;;;;;;;;6215294;23;20004;-84
2023/12/08 04:35:26;;;;;;;10.50;5.30;;;;;;;;;;6215753;23;20004;-84
2023/12/08 04:38:11;;;;;;;8.38;4.65;;;;;;;;;;6215974;23;19996;-84
2023/12/08 04:40:56;;;;;;;9.95;4.20;;;;;;;;;;6215880;23;20036;-84
2023/12/08 04:43:42;;;;;;;10.40;4.60;;;;;;;;;;6216323;23;19996;-84
2023/12/08 04:46:27;;;;;;;8.02;4.65;;;;;;;;;;6216144;23;20011;-83
2023/12/08 04:49:12;;;;;;;7.65;4.03;;;;;;;;;;6216180;23;20015;-83
2023/12/08 04:51:57;;;;;;;7.80;4.53;;;;;;;;;;6215673;23;20004;-84
2023/12/08 04:54:43;;;;;;;8.63;4.78;;;;;;;;;;6215446;23;20000;-84
2023/12/08 04:57:28;;;;;;;10.48;5.22;;;;;;;;;;6215397;23;20066;-83
2023/12/08 05:00:14;;;;;;;8.18;4.25;;;;;;;;;;6215396;23;20015;-84
2023/12/08 05:03:00;;;;;;;8.50;4.60;;;;;;;;;;6216493;23;20023;-83
2023/12/08 05:05:45;;;;;;;9.05;5.18;;;;;;;;;;6215794;23;20024;-83
2023/12/08 05:08:30;;;;;;;10.90;4.90;;;;;;;;;;6215517;23;20341;-84
2023/12/08 05:11:15;;;;;;;9.00;4.55;;;;;;;;;;6206199;23;20039;-84
2023/12/08 05:14:00;;;;;;;13.07;5.60;;;;;;;;;;6207251;23;19996;-86
2023/12/08 05:16:46;;;;;;;9.43;5.00;;;;;;;;;;6206220;23;20001;-85
2023/12/08 05:19:32;;;;;;;13.82;4.70;;;;;;;;;;6186731;23;20000;-86
2023/12/08 05:22:17;;;;;;;9.63;5.30;;;;;;;;;;6206328;23;20000;-85
2023/12/08 05:25:02;;;;;;;7.82;4.50;;;;;;;;;;6206679;23;20080;-84
2023/12/08 05:27:48;;;;;;;8.77;5.35;;;;;;;;;;6206257;23;20091;-83
2023/12/08 05:30:33;;;;;;;9.05;4.78;;;;;;;;;;6207425;23;20003;-84
2023/12/08 05:33:19;;;;;;;9.70;5.30;;;;;;;;;;6206496;23;20004;-83
2023/12/08 05:36:04;;;;;;;10.18;5.65;;;;;;;;;;6207581;23;20058;-84
2023/12/08 05:38:49;;;;;;;11.68;5.90;;;;;;;;;;6207671;23;20054;-84
2023/12/08 05:41:35;;;;;;;11.50;6.07;;;;;;;;;;6207477;23;20001;-83
2023/12/08 05:44:21;;;;;;;12.10;5.68;;;;;;;;;;6207167;23;20012;-85
2023/12/08 05:47:06;;;;;;;9.10;5.10;;;;;;;;;;6206518;23;20015;-83
2023/12/08 05:49:52;;;;;;;8.68;5.10;;;;;;;;;;6206623;23;20000;-84
2023/12/08 05:52:37;;;;;;;10.85;7.15;;;;;;;;;;6209497;23;20008;-84
2023/12/08 05:55:22;;;;;;;13.18;6.07;;;;;;;;;;6208171;23;20000;-83
2023/12/08 05:58:08;;;;;;;9.20;5.47;;;;;;;;;;6208666;23;19996;-84
2023/12/08 06:00:53;;;;;;;19.98;6.80;;;;;;;;;;6207733;23;20079;-85
2023/12/08 06:03:39;;;;;;;9.55;5.60;;;;;;;;;;6208770;23;20067;-86
2023/12/08 06:06:26;;;;;;;10.50;5.20;;;;;;;;;;6208708;23;19996;-85
2023/12/08 06:09:13;;;;;;;12.88;6.47;;;;;;;;;;6209208;23;20460;-86
2023/12/08 06:12:01;;;;;;;11.10;5.47;;;;;;;;;;6209476;23;20079;-84
2023/12/08 06:14:46;;;;;;;13.63;7.03;;;;;;;;;;6209684;23;19997;-84
2023/12/08 06:17:32;;;;;;;12.50;6.45;;;;;;;;;;6207539;23;20341;-82
2023/12/08 06:20:17;;;;;;;14.90;5.63;;;;;;;;;;6208717;23;19996;-82
2023/12/08 06:23:02;;;;;;;13.93;6.20;;;;;;;;;;6208341;23;20001;-83
2023/12/08 06:25:48;;;;;;;11.95;6.18;;;;;;;;;;6207936;23;20008;-82
2023/12/08 06:28:33;;;;;;;11.15;6.60;;;;;;;;;;6208863;23;20047;-83
2023/12/08 06:31:18;;;;;;;10.13;5.90;;;;;;;;;;6208250;23;20079;-81
2023/12/08 06:34:04;;;;;;;11.57;6.40;;;;;;;;;;6207601;23;20083;-83
2023/12/08 06:36:49;;;;;;;11.90;6.93;;;;;;;;;;6208902;23;20084;-86
2023/12/08 06:39:34;;;;;;;11.93;6.68;;;;;;;;;;6209204;23;20004;-86
2023/12/08 06:42:21;;;;;;;14.15;7.25;;;;;;;;;;6206739;23;20009;-86
2023/12/08 06:45:07;;;;;;;13.18;7.65;;;;;;;;;;6227678;23;20088;-89
2023/12/08 06:47:53;;;;;;;14.45;8.45;;;;;;;;;;6237749;23;19988;-89
2023/12/08 06:50:38;;;;;;;15.95;9.07;;;;;;;;;;6242849;22;20007;-88
2023/12/08 06:53:23;;;;;;;18.23;8.27;;;;;;;;;;6268677;22;20003;-88
2023/12/08 06:59:17;;;;;;;12.77;6.65;;;;;;;;;;6249758;23;20020;-81
2023/12/08 07:02:02;;;;;;;11.00;6.45;;;;;;;;;;6237244;23;20464;-77
2023/12/08 07:04:47;;;;;;;17.35;7.43;;;;;;;;;;6215036;23;20097;-78
2023/12/08 07:07:33;;;;;;;14.73;7.38;;;;;;;;;;6236633;23;20011;-86
2023/12/08 07:10:18;;;;;;;14.38;7.40;;;;;;;;;;6237667;23;20023;-86
2023/12/08 07:13:03;;;;;;;12.57;7.22;;;;;;;;;;6236576;22;20012;-85
2023/12/08 07:15:49;;;;;;;16.13;7.68;;;;;;;;;;6236880;23;20007;-84
2023/12/08 07:18:36;;;;;;;14.35;7.53;;;;;;;;;;6261522;23;20030;-85
2023/12/08 07:21:23;;;;;;;14.68;7.15;;;;;;;;;;6241783;23;20385;-85
2023/12/08 07:24:09;;;;;;;15.75;9.00;;;;;;;;;;6238767;23;20079;-85
2023/12/08 07:26:55;;;;;;;17.83;8.43;;;;;;;;;;6237549;23;20004;-86
2023/12/08 07:29:40;;;;;;;15.15;9.05;;;;;;;;;;6216486;23;20329;-85
2023/12/08 07:32:25;;;;;;;18.17;9.13;;;;;;;;;;6237755;23;20062;-85
2023/12/08 07:35:10;;;;;;;18.77;8.75;;;;;;;;;;6238408;22;20464;-83
2023/12/08 07:37:55;;;;;;;16.55;7.72;;;;;;;;;;6238572;23;20030;-84
2023/12/08 07:40:41;;;;;;;15.80;8.07;;;;;;;;;;6240187;23;20032;-85
2023/12/08 07:43:26;;;;;;;16.23;8.55;;;;;;;;;;6238594;23;20061;-86
2023/12/08 07:46:11;;;;;;;15.25;7.70;;;;;;;;;;6237480;23;19997;-86
2023/12/08 07:48:57;;;;;;;26.02;9.75;;;;;;;;;;6237547;22;20000;-83
2023/12/08 07:51:43;;;;;;;15.30;8.70;;;;;;;;;;6258547;22;20020;-83
2023/12/08 07:54:31;;;;;;;15.52;8.10;;;;;;;;;;6237432;22;20003;-82
2023/12/08 07:57:18;;;;;;;12.60;7.82;;;;;;;;;;6237632;23;20084;-86
2023/12/08 08:00:08;;;;;;;21.60;8.80;;;;;;;;;;6240529;23;20028;-84
2023/12/08 08:03:09;;;;;;;15.93;9.02;;;;;;;;;;6239632;23;20004;-86
2023/12/08 08:05:54;;;;;;;18.60;8.55;;;;;;;;;;6174304;23;20514;-85
2023/12/08 08:08:40;;;;;;;15.07;7.90;;;;;;;;;;6235229;22;20031;-86
2023/12/08 08:11:25;;;;;;;16.77;8.07;;;;;;;;;;6238346;23;20408;-86
2023/12/08 08:14:10;;;;;;;13.85;6.80;;;;;;;;;;6241488;23;20158;-86
2023/12/08 08:16:56;;;;;;;12.60;7.32;;;;;;;;;;6236268;23;20514;-87
2023/12/08 08:19:42;;;;;;;13.80;7.20;;;;;;;;;;6236847;23;19992;-86
2023/12/08 08:22:27;;;;;;;15.05;8.07;;;;;;;;;;6257420;22;20000;-86
2023/12/08 08:25:13;;;;;;;12.57;6.50;;;;;;;;;;6237527;22;20000;-85
2023/12/08 08:28:00;;;;;;;12.27;7.85;;;;;;;;;;6260527;22;20500;-84
2023/12/08 08:30:48;;;;;;;18.42;6.90;;;;;;;;;;6246189;23;20008;-86
2023/12/08 08:33:33;;;;;;;22.38;7.55;;;;;;;;;;6237075;23;20046;-88
2023/12/08 08:36:18;;;;;;;13.50;6.85;;;;;;;;;;6236839;23;20000;-87
2023/12/08 08:39:04;;;;;;;16.95;8.18;;;;;;;;;;6237385;23;20325;-87
2023/12/08 08:41:50;;;;;;;16.88;8.02;;;;;;;;;;6236940;23;20485;-87
2023/12/08 08:44:36;;;;;;;15.68;8.35;;;;;;;;;;6236506;23;20057;-86
2023/12/08 08:47:21;;;;;;;18.05;7.68;;;;;;;;;;6238157;23;19996;-87
2023/12/08 08:50:07;;;;;;;13.75;7.18;;;;;;;;;;6236524;23;20460;-87
2023/12/08 08:52:52;;;;;;;17.10;6.97;;;;;;;;;;6216002;23;20042;-87
2023/12/08 08:55:37;;;;;;;13.25;7.00;;;;;;;;;;6237074;22;20003;-88
2023/12/08 08:58:23;;;;;;;18.17;7.80;;;;;;;;;;6237220;23;20000;-88
2023/12/08 09:01:09;;;;;;;18.27;7.90;;;;;;;;;;6237767;23;20004;-86
2023/12/08 09:03:54;;;;;;;18.13;7.93;;;;;;;;;;6236716;23;20038;-86
2023/12/08 09:06:39;;;;;;;15.98;8.10;;;;;;;;;;6234612;23;20119;-88
2023/12/08 09:09:24;;;;;;;12.82;7.93;;;;;;;;;;6234623;23;20000;-88
2023/12/08 09:12:10;;;;;;;17.55;8.52;;;;;;;;;;6234848;23;20003;-87
2023/12/08 09:14:55;;;;;;;13.63;7.13;;;;;;;;;;6236700;23;20006;-87
2023/12/08 09:17:40;;;;;;;15.32;7.75;;;;;;;;;;6234393;23;20073;-86
2023/12/08 09:20:26;;;;;;;11.45;6.47;;;;;;;;;;6237443;23;20000;-88
2023/12/08 09:23:11;;;;;;;13.68;6.97;;;;;;;;;;6234739;23;20000;-87
2023/12/08 09:25:56;;;;;;;13.43;8.07;;;;;;;;;;6236621;23;20063;-87
2023/12/08 09:28:42;;;;;;;14.18;7.53;;;;;;;;;;6237181;23;20134;-87
2023/12/08 09:31:27;;;;;;;13.98;6.65;;;;;;;;;;6236830;23;20004;-86
2023/12/08 09:34:12;;;;;;;14.50;8.60;;;;;;;;;;6258534;22;20011;-87
2023/12/08 09:36:59;;;;;;;14.85;6.82;;;;;;;;;;6237191;23;20000;-85
2023/12/08 09:39:44;;;;;;;17.40;8.10;;;;;;;;;;6237417;23;19996;-86
2023/12/08 09:42:31;;;;;;;15.65;7.45;;;;;;;;;;6236445;23;20000;-86
2023/12/08 09:45:16;;;;;;;13.27;6.95;;;;;;;;;;6237002;23;20000;-87
2023/12/08 09:48:06;;;;;;;13.05;7.40;;;;;;;;;;6237258;22;20003;-87
2023/12/08 09:50:52;;;;;;;12.95;7.30;;;;;;;;;;6236891;22;20016;-87
2023/12/08 09:53:38;;;;;;;17.52;7.68;;;;;;;;;;6238641;22;20012;-87
2023/12/08 09:56:25;;;;;;;14.85;7.18;;;;;;;;;;6238432;23;20306;-87
2023/12/08 09:59:11;;;;;;;16.73;6.72;;;;;;;;;;6238874;23;19992;-87
2023/12/08 10:01:56;;;;;;;14.10;7.40;;;;;;;;;;6237440;23;20014;-89
2023/12/08 10:04:41;;;;;;;14.00;8.30;;;;;;;;;;6240487;22;20010;-87
2023/12/08 10:07:31;;;;;;;17.63;7.88;;;;;;;;;;6237229;23;20008;-87
2023/12/08 10:10:45;;;;;;;;;;;;;;;;;;;;;
2023/12/08 10:13:32;;;;;;;15.13;8.25;;;;;;;;;;6199122;23;20015;-88
2023/12/08 10:16:17;;;;;;;16.35;7.32;;;;;;;;;;6236414;23;19996;-87
2023/12/08 10:19:06;;;;;;;13.50;7.30;;;;;;;;;;6231673;23;20023;-89
2023/12/08 10:22:01;;;;;;;13.53;6.60;;;;;;;;;;6236878;23;20449;-89
2023/12/08 10:24:46;;;;;;;11.15;6.22;;;;;;;;;;6237092;23;20079;-89
2023/12/08 10:27:33;;;;;;;15.98;8.63;;;;;;;;;;6237018;23;20064;-88
2023/12/08 10:30:20;;;;;;;12.13;6.88;;;;;;;;;;6237727;23;20011;-87
2023/12/08 10:33:05;;;;;;;12.38;6.50;;;;;;;;;;6236615;23;20000;-87
2023/12/08 10:35:50;;;;;;;12.13;6.38;;;;;;;;;;6237359;23;20007;-88
2023/12/08 10:38:36;;;;;;;12.95;7.07;;;;;;;;;;6238482;23;20059;-87
2023/12/08 10:41:21;;;;;;;11.15;6.10;;;;;;;;;;6238435;23;20000;-85
2023/12/08 10:44:08;;;;;;;13.15;6.63;;;;;;;;;;6238389;23;20623;-86
2023/12/08 10:46:53;;;;;;;14.23;7.60;;;;;;;;;;6237939;23;20000;-87
2023/12/08 10:49:39;;;;;;;15.18;7.13;;;;;;;;;;6238406;23;20000;-85
2023/12/08 10:52:25;;;;;;;25.90;12.55;;;;;;;;;;6259742;22;20020;-85
2023/12/08 10:55:11;;;;;;;21.02;10.75;;;;;;;;;;6238747;23;20092;-86
2023/12/08 10:57:56;;;;;;;16.30;7.82;;;;;;;;;;6216859;23;20062;-85
2023/12/08 11:00:42;;;;;;;14.32;8.02;;;;;;;;;;6237703;22;20000;-85
2023/12/08 11:03:32;;;;;;;11.05;7.50;;;;;;;;;;6237546;23;20000;-84
2023/12/08 11:06:21;;;;;;;15.25;7.60;;;;;;;;;;6237840;23;20357;-86
2023/12/08 11:09:07;;;;;;;11.88;6.60;;;;;;;;;;6237472;23;20099;-88
2023/12/08 11:11:55;;;;;;;14.00;6.93;;;;;;;;;;6238241;23;20087;-88
2023/12/08 11:14:41;;;;;;;11.43;6.43;;;;;;;;;;6239186;23;20087;-87
2023/12/08 11:17:35;;;;;;;13.70;7.70;;;;;;;;;;6238305;23;20004;-84
2023/12/08 11:20:21;;;;;;;10.93;6.20;;;;;;;;;;6237292;23;20027;-82
2023/12/08 11:23:07;;;;;;;11.77;5.95;;;;;;;;;;6237313;22;20004;-84
2023/12/08 11:26:19;;;;;;;13.75;6.95;;;;;;;;;;6258752;22;20000;-84
2023/12/08 11:29:11;;;;;;;12.70;6.55;;;;;;;;;;6244116;22;19996;-82
2023/12/08 11:32:09;;;;;;;12.20;6.80;;;;;;;;;;6237665;23;20011;-83
2023/12/08 11:35:00;;;;;;;11.10;6.57;;;;;;;;;;6237785;23;20043;-84
2023/12/08 11:37:46;;;;;;;11.70;5.65;;;;;;;;;;6237365;23;20000;-84
2023/12/08 11:40:31;;;;;;;11.68;6.47;;;;;;;;;;6236532;23;20061;-82
2023/12/08 11:43:17;;;;;;;8.43;5.15;;;;;;;;;;6233899;23;20000;-79
2023/12/08 11:46:03;;;;;;;9.68;4.95;;;;;;;;;;6234194;23;20421;-82
2023/12/08 11:48:51;;;;;;;10.45;5.43;;;;;;;;;;6235953;23;20024;-81
2023/12/08 11:51:36;;;;;;;9.57;5.20;;;;;;;;;;6238154;23;20016;-83
2023/12/08 11:54:22;;;;;;;8.90;5.32;;;;;;;;;;6242501;23;20003;-87
2023/12/08 11:57:07;;;;;;;9.80;5.47;;;;;;;;;;6238983;23;20561;-84
2023/12/08 11:59:53;;;;;;;14.60;5.93;;;;;;;;;;6239054;23;20040;-84
2023/12/08 12:02:42;;;;;;;10.60;5.20;;;;;;;;;;6237446;23;20065;-82
2023/12/08 12:05:27;;;;;;;10.27;5.00;;;;;;;;;;6259263;22;20066;-84
2023/12/08 12:08:14;;;;;;;11.50;4.45;;;;;;;;;;6232906;23;20015;-85
2023/12/08 12:11:01;;;;;;;8.40;4.85;;;;;;;;;;6236152;23;20004;-84
2023/12/08 12:13:46;;;;;;;9.55;5.15;;;;;;;;;;6215902;23;20107;-81
2023/12/08 12:16:31;;;;;;;8.05;4.13;;;;;;;;;;6237070;23;20000;-83
2023/12/08 12:19:17;;;;;;;10.02;4.30;;;;;;;;;;6238409;23;20016;-83
2023/12/08 12:22:03;;;;;;;7.78;4.32;;;;;;;;;;6239324;23;20058;-85
2023/12/08 12:24:48;;;;;;;9.95;3.75;;;;;;;;;;6237486;23;20008;-86
2023/12/08 12:27:45;;;;;;;8.32;3.33;;;;;;;;;;6237515;23;20026;-88
2023/12/08 12:30:31;;;;;;;6.15;3.28;;;;;;;;;;6238139;23;20000;-87
2023/12/08 12:33:16;;;;;;;6.28;2.83;;;;;;;;;;6238589;23;20083;-86
2023/12/08 12:36:03;;;;;;;5.80;3.20;;;;;;;;;;6237086;22;20068;-85
2023/12/08 12:38:49;;;;;;;3.83;2.70;;;;;;;;;;6256519;22;20079;-86
2023/12/08 12:41:35;;;;;;;4.15;2.53;;;;;;;;;;6231312;22;19996;-86
2023/12/08 12:44:21;;;;;;;3.72;2.38;;;;;;;;;;6233113;23;20432;-85
2023/12/08 12:47:09;;;;;;;3.60;2.17;;;;;;;;;;6238401;23;20055;-86
2023/12/08 12:50:05;;;;;;;3.92;2.45;;;;;;;;;;6238587;22;19996;-86
2023/12/08 12:53:01;;;;;;;3.55;2.30;;;;;;;;;;6247021;22;20368;-86
2023/12/08 12:55:46;;;;;;;4.22;2.67;;;;;;;;;;6247107;22;20075;-86
2023/12/08 12:58:31;;;;;;;6.88;3.20;;;;;;;;;;6247698;22;20028;-86
2023/12/08 13:01:18;;;;;;;4.88;2.97;;;;;;;;;;6243865;22;20110;-87
2023/12/08 13:04:03;;;;;;;5.72;2.70;;;;;;;;;;6241206;22;20010;-85
2023/12/08 13:06:48;;;;;;;5.05;3.08;;;;;;;;;;6244680;22;20006;-86
2023/12/08 13:09:34;;;;;;;4.93;2.40;;;;;;;;;;6246402;22;20010;-86
2023/12/08 13:12:20;;;;;;;5.32;2.78;;;;;;;;;;6246189;22;20000;-87
2023/12/08 13:15:06;;;;;;;5.63;2.85;;;;;;;;;;6246434;22;20487;-83
2023/12/08 13:17:51;;;;;;;4.28;2.42;;;;;;;;;;6244506;22;20157;-83
2023/12/08 13:20:37;;;;;;;6.35;2.42;;;;;;;;;;6245243;22;20011;-83
2023/12/08 13:23:23;;;;;;;4.82;2.17;;;;;;;;;;6245701;22;20336;-83
2023/12/08 13:26:09;;;;;;;6.45;2.55;;;;;;;;;;6246078;22;20000;-85
2023/12/08 13:28:54;;;;;;;6.00;2.63;;;;;;;;;;6245762;22;20464;-84
2023/12/08 13:31:39;;;;;;;5.10;2.60;;;;;;;;;;6245848;22;20335;-85
2023/12/08 13:34:25;;;;;;;4.47;2.33;;;;;;;;;;6243902;22;20004;-84
2023/12/08 13:37:10;;;;;;;3.42;2.17;;;;;;;;;;6245813;22;20379;-84
2023/12/08 13:39:56;;;;;;;3.33;2.05;;;;;;;;;;6266718;22;20003;-82
2023/12/08 13:42:41;;;;;;;2.58;1.90;;;;;;;;;;6245651;22;20000;-82
2023/12/08 13:45:26;;;;;;;3.88;2.05;;;;;;;;;;6246038;22;20217;-84
2023/12/08 13:48:11;;;;;;;5.53;2.35;;;;;;;;;;6246593;22;20377;-87
2023/12/08 13:50:57;;;;;;;4.55;2.53;;;;;;;;;;6245578;22;20043;-85
2023/12/08 13:53:42;;;;;;;4.30;2.33;;;;;;;;;;6244420;22;19996;-84
2023/12/08 13:56:27;;;;;;;2.72;1.70;;;;;;;;;;6243509;22;20062;-86
2023/12/08 13:59:12;;;;;;;4.25;2.10;;;;;;;;;;6246053;22;20057;-85
2023/12/08 14:01:58;;;;;;;3.88;2.38;;;;;;;;;;6246203;22;20000;-85
2023/12/08 14:04:43;;;;;;;4.65;2.72;;;;;;;;;;6246710;22;20142;-85
2023/12/08 14:07:28;;;;;;;3.67;2.60;;;;;;;;;;6246361;22;20080;-84
2023/12/08 14:10:14;;;;;;;4.10;2.67;;;;;;;;;;6245719;22;20061;-85
2023/12/08 14:12:59;;;;;;;3.58;2.05;;;;;;;;;;6245737;22;20058;-83
2023/12/08 14:15:44;;;;;;;5.47;2.15;;;;;;;;;;6242807;22;19991;-82
2023/12/08 14:18:29;;;;;;;5.80;2.90;;;;;;;;;;6245430;22;19996;-83
2023/12/08 14:21:15;;;;;;;4.63;2.80;;;;;;;;;;6247335;22;20021;-86
2023/12/08 14:24:00;;;;;;;4.55;2.50;;;;;;;;;;6247397;22;20015;-85
2023/12/08 14:26:46;;;;;;;4.30;2.67;;;;;;;;;;6245710;22;20034;-86
2023/12/08 14:29:31;;;;;;;4.15;2.20;;;;;;;;;;6247261;22;20004;-83
2023/12/08 14:32:18;;;;;;;5.65;2.83;;;;;;;;;;6247730;22;20003;-86
2023/12/08 14:35:03;;;;;;;5.90;3.30;;;;;;;;;;6248537;22;20000;-87
2023/12/08 14:37:49;;;;;;;7.00;3.50;;;;;;;;;;6249728;22;19996;-86
2023/12/08 14:40:35;;;;;;;5.82;3.30;;;;;;;;;;6248860;22;19999;-86
2023/12/08 14:43:21;;;;;;;5.88;2.53;;;;;;;;;;6229660;22;20004;-87
2023/12/08 14:46:06;;;;;;;3.55;2.05;;;;;;;;;;6256524;22;20263;-86
2023/12/08 14:48:51;;;;;;;6.40;2.90;;;;;;;;;;6275086;22;20016;-85
2023/12/08 14:51:37;;;;;;;6.30;2.63;;;;;;;;;;6265995;22;20024;-85
2023/12/08 14:54:22;;;;;;;4.40;2.88;;;;;;;;;;6286003;22;19992;-85
2023/12/08 14:57:07;;;;;;;5.30;2.90;;;;;;;;;;6264556;22;20004;-77
2023/12/08 14:59:53;;;;;;;6.70;3.03;;;;;;;;;;6237273;23;20004;-81
2023/12/08 15:02:39;;;;;;;4.68;3.15;;;;;;;;;;6214310;23;20054;-80
2023/12/08 15:05:25;;;;;;;4.93;2.33;;;;;;;;;;6237244;23;19997;-79
2023/12/08 15:08:10;;;;;;;5.38;2.58;;;;;;;;;;6257937;22;19996;-78
2023/12/08 15:10:55;;;;;;;4.45;3.30;;;;;;;;;;6258432;22;19996;-86
2023/12/08 15:13:40;;;;;;;5.15;2.70;;;;;;;;;;6236782;23;20508;-88
2023/12/08 15:16:26;;;;;;;5.63;3.00;;;;;;;;;;6239859;23;19992;-87
2023/12/08 15:19:11;;;;;;;6.85;3.28;;;;;;;;;;6238068;22;20000;-79
2023/12/08 15:21:59;;;;;;;6.55;3.38;;;;;;;;;;6238297;23;20164;-84
2023/12/08 15:24:44;;;;;;;6.97;2.78;;;;;;;;;;6237831;23;20010;-89
2023/12/08 15:27:30;;;;;;;3.92;2.45;;;;;;;;;;6239630;23;20067;-89
2023/12/08 15:30:15;;;;;;;6.80;2.90;;;;;;;;;;6237873;22;20010;-86
2023/12/08 15:33:00;;;;;;;5.95;3.08;;;;;;;;;;6238855;23;20004;-85
2023/12/08 15:35:46;;;;;;;7.32;3.38;;;;;;;;;;6238938;23;20003;-84
2023/12/08 15:38:31;;;;;;;4.43;2.50;;;;;;;;;;6238620;22;19993;-86
2023/12/08 15:41:16;;;;;;;5.90;2.95;;;;;;;;;;6238962;23;20004;-87
2023/12/08 15:44:02;;;;;;;5.22;3.00;;;;;;;;;;6239092;23;20130;-87
2023/12/08 15:46:48;;;;;;;6.97;2.85;;;;;;;;;;6240071;22;20619;-85
2023/12/08 15:49:34;;;;;;;13.23;5.38;;;;;;;;;;6239530;23;20027;-86
2023/12/08 15:52:19;;;;;;;10.48;5.28;;;;;;;;;;6230230;23;20062;-86
2023/12/08 15:55:05;;;;;;;5.95;2.92;;;;;;;;;;6209075;23;20425;-86
2023/12/08 15:57:50;;;;;;;6.30;4.13;;;;;;;;;;6209162;23;20051;-86
2023/12/08 16:00:35;;;;;;;9.38;3.90;;;;;;;;;;6208471;23;19997;-85
2023/12/08 16:03:21;;;;;;;12.18;5.65;;;;;;;;;;6209362;23;20333;-87
2023/12/08 16:06:11;;;;;;;11.25;4.80;;;;;;;;;;6229982;23;19996;-86
2023/12/08 16:08:57;;;;;;;13.70;4.55;;;;;;;;;;6211760;23;20008;-86
2023/12/08 16:11:42;;;;;;;7.43;4.03;;;;;;;;;;6207756;23;20004;-87
2023/12/08 16:14:27;;;;;;;6.00;3.90;;;;;;;;;;6205077;23;20000;-88
2023/12/08 16:17:14;;;;;;;10.10;4.40;;;;;;;;;;6207674;23;20337;-87
2023/12/08 16:19:59;;;;;;;7.22;3.80;;;;;;;;;;6206796;23;20004;-87
2023/12/08 16:22:44;;;;;;;6.15;3.75;;;;;;;;;;6205800;23;20004;-87
2023/12/08 16:25:30;;;;;;;8.48;3.22;;;;;;;;;;6207272;23;20082;-87
2023/12/08 16:28:15;;;;;;;4.72;2.85;;;;;;;;;;6209698;23;20035;-87
2023/12/08 16:31:01;;;;;;;7.70;3.80;;;;;;;;;;6213391;23;20008;-83
2023/12/08 16:33:46;;;;;;;5.63;3.45;;;;;;;;;;6207786;23;20005;-81